Dresden, KS (67635)

1:38 AM CDT on July 23, 2017 (GMT -0500)
Selden, KS | | Change Station

Elev 2858 ft 39.54 °N, 100.55 °W | Updated 6 seconds ago

Clear
Clear
66.4 °F
Feels Like 66.4 °F
N
0.9
Wind Variable Wind from NNW
Gusts 6.0 mph

Today
High -- | Low -- °F
--% Chance of Precip.
Yesterday
High -- | Low -- °F
Precip. -- in
Pressure 29.92 in
Visibility 9.0 miles
Clouds Clear
Dew Point 62 °F
Humidity 87%
Rainfall 0.00 in
Snow Depth Not available.
6:33 AM 9:02 PM
Waning Crescent, 0% visible
METAR KHLC 230553Z AUTO 33005KT 9SM CLR 21/19 A3000 RMK AO2 SLP131 60006 T02110194 10250 20206 403830206 53006
Pressure 29.92 in
Visibility 9.0 miles
Clouds Clear
Dew Point 62 °F
Humidity 87%
Rainfall 0.00 in
Snow Depth Not available.
6:33 AM 9:02 PM
Waning Crescent, 0% visible
METAR KHLC 230553Z AUTO 33005KT 9SM CLR 21/19 A3000 RMK AO2 SLP131 60006 T02110194 10250 20206 403830206 53006

Get Severe Weather Alerts

Thanks for signing up!

Be on the lookout for a verification email in your inbox.

You'll start receiving the daily forecast at 6 AM.

×

10-Day Weather Forecast

Almanac

Astronomy

Jul. 23, 2017 Rise Set
Actual Time
Civil Twilight
Nautical Twilight
Astronomical Twilight
Moon
Length of Visible Light
Length of Day
Tomorrow will be .
, % of the Moon is Illuminated

Today's Extremes

State Highs State Lows

Community

WunderPhotos

Category 6

Welcome to Category 6. This is the collective home for Weather Underground's featured writeups by Dr. Jeff Masters (right), Bob Henson (left), Chris Burt, and other regular contributors.

Nearby

Air Quality

  Air Quality AQ Index Pollutant
Not available.

Snow Depth

Station Depth Elevation

Earthquake Activity

City Distance Mag. Time & Date
Minimum magnitude displayed is 2.5.

Coastal Water Temperatures

Place Temperature

Stations

Nearby Weather Stations

Station Location Temp. Windchill Dew Point Humidity Wind Precip. Elev Updated Type
                   

Watches & Warnings

There are currently no watches in effect.